Weather History for Llano, TX

Change the Weather History Date:

Thursday, January 23, 2014

  Actual Average (KBMQ) Record (KBMQ)
Temperature  
Mean Temperature 38 °F -  
Max Temperature 51 °F 58 °F 82 °F (2009)
Min Temperature 24 °F 37 °F 23 °F (2014)
Degree Days  
Heating Degree Days 28    
Moisture  
Dew Point 26 °F    
Average Humidity 61    
Maximum Humidity 81    
Minimum Humidity 42    
Precipitation  
Precipitation 0.00 in - - ()
Sea Level Pressure  
Sea Level Pressure 30.41 in    
Wind  
Wind Speed 7 mph (NE)    
Max Wind Speed 20 mph    
Max Gust Speed 25 mph    
Visibility 9 miles    
Events Rain    
Averages and records for this station are not official NWS values.
T = Trace of Precipitation, MM = Missing Value Source: NWS Daily Summary

Daily Weather History Graph

Daily Weather History Graph

Search for Another Location

Airport:

Trip Planner

Search our weather history database for the weather conditions in past years. The results will help you decide how hot, cold, wet, or windy it might be!

Date:

Astronomy

Jan. 23, 2014 Rise Set
Actual Time 7:30 AM CST 6:02 PM CST
Civil Twilight 7:04 AM CST 6:28 PM CST
Nautical Twilight 6:35 AM CST 6:57 PM CST
Astronomical Twilight 6:06 AM CST 7:26 PM CST
Moon 12:06 AM CST (1/23) 11:37 AM CST (1/23)
Length of Visible Light 11h 23m
Length of Day
10h 32m
Waning Gibbous, 55% of the Moon is Illuminated
Jan 23
Waning Gibbous
Jan 23
Last Quarter
Jan 30
New
Feb 6
First Quarter
Feb 14
Full

Hourly Weather History & Observations

Time (CST) Temp. Windchill Dew Point Humidity Pressure Visibility Wind Dir Wind Speed Gust Speed Precip Events Conditions
12:15 AM 48.2 °F - 26.6 °F 43% 30.07 in 10.0 mi Calm Calm - N/A   Clear
12:35 AM 48.2 °F - 28.4 °F 46% 30.07 in 10.0 mi Calm Calm - N/A   Clear
12:55 AM 50.0 °F - 28.4 °F 43% 30.07 in 10.0 mi ESE 4.6 mph - N/A   Clear
1:15 AM 48.2 °F - 30.2 °F 50% 30.07 in 10.0 mi ENE 4.6 mph - N/A   Clear
1:35 AM 50.0 °F - 30.2 °F 47% 30.08 in 10.0 mi Calm Calm - N/A   Clear
1:55 AM 48.2 °F - 32.0 °F 54% 30.07 in 10.0 mi ESE 4.6 mph - N/A   Clear
2:15 AM 48.2 °F - 32.0 °F 54% 30.08 in 10.0 mi Calm Calm - N/A   Clear
2:35 AM 48.2 °F - 32.0 °F 54% 30.09 in 10.0 mi Calm Calm - N/A   Clear
2:55 AM 48.2 °F - 33.8 °F 58% 30.09 in 10.0 mi Calm Calm - N/A   Clear
3:15 AM 46.4 °F - 33.8 °F 62% 30.10 in 10.0 mi Calm Calm - N/A   Clear
3:35 AM 50.0 °F - 37.4 °F 62% 30.11 in 10.0 mi NE 4.6 mph - N/A   Clear
3:55 AM 51.8 °F - 39.2 °F 62% 30.13 in 10.0 mi Calm Calm - N/A   Clear
4:15 AM 51.8 °F - 39.2 °F 62% 30.14 in 10.0 mi Calm Calm - N/A   Clear
4:35 AM 50.0 °F - 39.2 °F 66% 30.14 in 10.0 mi NE 6.9 mph - N/A   Clear
4:55 AM 50.0 °F - 37.4 °F 62% 30.15 in 10.0 mi NE 6.9 mph - N/A   Clear
5:15 AM 48.2 °F - 37.4 °F 66% 30.16 in 10.0 mi NNE 4.6 mph - N/A   Scattered Clouds
5:35 AM 48.2 °F - 35.6 °F 62% 30.18 in 10.0 mi NE 5.8 mph - N/A   Overcast
5:55 AM 48.2 °F - 33.8 °F 58% 30.19 in 10.0 mi NE 5.8 mph - N/A   Overcast
6:15 AM 46.4 °F 45.2 °F 32.0 °F 57% 30.20 in 10.0 mi NE 3.5 mph - N/A   Overcast
6:35 AM 46.4 °F 42.4 °F 32.0 °F 57% 30.21 in 10.0 mi ENE 8.1 mph - N/A   Overcast
6:55 AM 46.4 °F 44.3 °F 30.2 °F 53% 30.23 in 10.0 mi NNE 4.6 mph - N/A   Overcast
7:15 AM 44.6 °F 41.4 °F 28.4 °F 53% 30.26 in 10.0 mi NE 5.8 mph - N/A   Overcast
7:35 AM 44.6 °F 40.7 °F 28.4 °F 53% 30.27 in 10.0 mi NE 6.9 mph - N/A   Overcast
7:55 AM 44.6 °F 37.8 °F 26.6 °F 49% 30.28 in 10.0 mi NE 15.0 mph 23.0 mph N/A   Overcast
8:15 AM 44.6 °F 38.1 °F 26.6 °F 49% 30.30 in 10.0 mi NE 13.8 mph 21.9 mph N/A   Overcast
8:35 AM 42.8 °F 36.6 °F 26.6 °F 53% 30.31 in 10.0 mi NE 11.5 mph 21.9 mph N/A   Overcast
8:55 AM 42.8 °F 36.2 °F 26.6 °F 53% 30.33 in 10.0 mi NE 12.7 mph 25.3 mph N/A   Overcast
9:15 AM 42.8 °F 35.4 °F 26.6 °F 53% 30.35 in 10.0 mi NE 15.0 mph 25.3 mph N/A   Overcast
9:35 AM 42.8 °F 35.4 °F 26.6 °F 53% 30.37 in 10.0 mi NE 15.0 mph 21.9 mph N/A   Overcast
9:55 AM 42.8 °F 36.6 °F 23.0 °F 46% 30.39 in 10.0 mi NE 11.5 mph 23.0 mph N/A   Overcast
10:15 AM 39.2 °F 30.2 °F 26.6 °F 61% 30.40 in 5.0 mi ENE 17.3 mph 21.9 mph N/A Rain Light Rain
10:35 AM 39.2 °F 32.0 °F 23.0 °F 52% 30.42 in 10.0 mi NNE 11.5 mph 21.9 mph N/A   Overcast
10:55 AM 41.0 °F 33.1 °F 21.2 °F 45% 30.43 in 10.0 mi NE 15.0 mph 21.9 mph N/A   Overcast
11:15 AM 41.0 °F 33.9 °F 21.2 °F 45% 30.44 in 10.0 mi NE 12.7 mph 20.7 mph N/A   Overcast
11:35 AM 41.0 °F 34.3 °F 19.4 °F 42% 30.45 in 10.0 mi NE 11.5 mph - N/A   Overcast
11:55 AM 41.0 °F 31.9 °F 21.2 °F 45% 30.45 in 10.0 mi NNE 19.6 mph 25.3 mph N/A   Overcast
12:15 PM 39.2 °F 30.5 °F 21.2 °F 49% 30.46 in 10.0 mi NE 16.1 mph 23.0 mph N/A   Mostly Cloudy
12:35 PM 39.2 °F 31.6 °F 21.2 °F 49% 30.46 in 10.0 mi NNE 12.7 mph 20.7 mph N/A   Overcast
12:55 PM 39.2 °F 30.2 °F 19.4 °F 45% 30.46 in 10.0 mi NNE 17.3 mph 23.0 mph N/A   Overcast
1:15 PM 39.2 °F 31.6 °F 19.4 °F 45% 30.45 in 10.0 mi NNE 12.7 mph 19.6 mph N/A   Overcast
1:35 PM 39.2 °F 30.8 °F 21.2 °F 49% 30.46 in 10.0 mi NNE 15.0 mph 24.2 mph N/A   Overcast
1:55 PM 37.4 °F 28.9 °F 21.2 °F 52% 30.47 in 10.0 mi NNE 13.8 mph 21.9 mph N/A   Overcast
2:15 PM 35.6 °F 27.1 °F 26.6 °F 70% 30.48 in 5.0 mi NNE 12.7 mph 24.2 mph N/A Rain Light Rain
2:35 PM 33.8 °F 26.4 °F 28.4 °F 81% 30.49 in 3.0 mi NNE 9.2 mph 18.4 mph N/A   Haze
2:55 PM 33.8 °F 24.8 °F 26.6 °F 75% 30.50 in 10.0 mi NE 12.7 mph 23.0 mph N/A   Overcast
3:15 PM 33.8 °F 26.4 °F 24.8 °F 70% 30.52 in 10.0 mi NE 9.2 mph 20.7 mph N/A   Overcast
3:35 PM 33.8 °F 23.9 °F 26.6 °F 75% 30.53 in 5.0 mi NE 15.0 mph 23.0 mph N/A Rain Light Rain
3:55 PM 33.8 °F 27.0 °F 26.6 °F 75% 30.54 in 8.0 mi NE 8.1 mph 16.1 mph N/A   Overcast
4:15 PM 33.8 °F 25.8 °F 24.8 °F 70% 30.55 in 10.0 mi NE 10.4 mph - N/A Rain Light Rain
4:35 PM 33.8 °F 26.4 °F 24.8 °F 70% 30.56 in 10.0 mi NNE 9.2 mph 19.6 mph N/A   Overcast
4:55 PM 32.0 °F 21.2 °F 23.0 °F 69% 30.58 in 10.0 mi North 16.1 mph 21.9 mph N/A Rain Light Rain
5:15 PM 32.0 °F 23.0 °F 23.0 °F 69% 30.59 in 6.0 mi NNE 11.5 mph 21.9 mph N/A Rain Light Rain
5:35 PM 32.0 °F 23.0 °F 23.0 °F 69% 30.60 in 5.0 mi NNE 11.5 mph 24.2 mph N/A   Overcast
5:55 PM 30.2 °F 18.5 °F 23.0 °F 75% 30.62 in 5.0 mi North 17.3 mph - N/A Rain Light Freezing Rain
6:15 PM 28.4 °F 16.2 °F 21.2 °F 74% 30.63 in 10.0 mi NNE 17.3 mph 25.3 mph N/A Rain Light Freezing Rain
6:35 PM 28.4 °F 17.0 °F 23.0 °F 80% 30.65 in 10.0 mi North 15.0 mph - N/A   Mostly Cloudy
6:55 PM 28.4 °F 17.0 °F 21.2 °F 74% 30.66 in 10.0 mi NNE 15.0 mph 20.7 mph N/A   Overcast
7:15 PM 28.4 °F 18.5 °F 21.2 °F 74% 30.66 in 8.0 mi NNE 11.5 mph 17.3 mph N/A Rain Light Freezing Rain
7:35 PM 28.4 °F 17.5 °F 21.2 °F 74% 30.67 in 4.0 mi NNE 13.8 mph 17.3 mph N/A Rain Light Freezing Rain
7:55 PM 26.6 °F 15.2 °F 21.2 °F 80% 30.67 in 5.0 mi NNE 13.8 mph 18.4 mph N/A Rain Light Freezing Rain
8:35 PM 26.6 °F 15.2 °F 21.2 °F 80% 30.69 in 10.0 mi North 13.8 mph 21.9 mph N/A   Overcast
8:55 PM 26.6 °F 16.2 °F 19.4 °F 74% 30.70 in 10.0 mi NNE 11.5 mph - N/A   Overcast
9:15 PM 26.6 °F 16.8 °F 19.4 °F 74% 30.71 in 10.0 mi NNE 10.4 mph - N/A   Overcast
9:55 PM 26.6 °F 16.8 °F 17.6 °F 69% 30.72 in 10.0 mi North 10.4 mph 16.1 mph N/A   Overcast
10:15 PM 26.6 °F 16.2 °F 17.6 °F 69% 30.72 in 10.0 mi North 11.5 mph 19.6 mph N/A Rain Light Freezing Rain
10:35 PM 26.6 °F 14.7 °F 15.8 °F 64% 30.73 in 10.0 mi NNE 15.0 mph 18.4 mph N/A   Overcast
10:55 PM 26.6 °F 15.2 °F 17.6 °F 69% 30.73 in 10.0 mi North 13.8 mph 17.3 mph N/A Rain Light Freezing Rain
11:15 PM 26.6 °F 15.2 °F 17.6 °F 69% 30.74 in 10.0 mi North 13.8 mph 21.9 mph N/A   Overcast
11:35 PM 24.8 °F 14.0 °F 17.6 °F 74% 30.75 in 10.0 mi North 11.5 mph - N/A Rain Light Freezing Rain
11:55 PM 24.8 °F 14.6 °F 17.6 °F 74% 30.74 in 9.0 mi NNE 10.4 mph 18.4 mph N/A Rain Light Freezing Rain